This is the latest recevied weather packets stored in our database for station/object WSLA411. If no packets are shown the sender has not sent any weather packets the latest 1 day(s).
| Time | Temp. | Humidity | Pressure | Rain* | Wind** | Luminosity | Snow |
|---|---|---|---|---|---|---|---|
| 1778083431 | 13.89° C | 85% | 1020.1 hPa | 0 mm | - | 43 W/m² | - |
| 1778083311 | 13.89° C | 85% | 1020 hPa | 0 mm | - | 46 W/m² | - |
| 1778083251 | 13.89° C | 85% | 1020 hPa | 0 mm | - | 46 W/m² | - |
| 1778082951 | 13.89° C | 85% | 1019.7 hPa | 0 mm | - | 51 W/m² | - |
| 1778082711 | 13.89° C | 85% | 1019.7 hPa | 0 mm | - | 62 W/m² | - |
| 1778082580 | 13.89° C | 86% | 1019.7 hPa | 0 mm | - | 49 W/m² | - |
| 1778082464 | 13.33° C | 86% | 1019.7 hPa | 0 mm | - | 46 W/m² | - |
| 1778082397 | 13.33° C | 86% | 1019.7 hPa | 0 mm | - | 48 W/m² | - |
| 1778082096 | 13.33° C | 86% | 1019.5 hPa | 0 mm | - | 63 W/m² | - |
| 1778082037 | 13.33° C | 86% | 1019.5 hPa | 0 mm | - | 71 W/m² | - |
| 1778081796 | 13.33° C | 86% | 1019.5 hPa | 0 mm | - | 63 W/m² | - |
| 1778081736 | 13.33° C | 87% | 1019.6 hPa | 0 mm | - | 67 W/m² | - |
| 1778081437 | 13.33° C | 87% | 1019.8 hPa | 0 mm | - | 36 W/m² | - |
| 1778081303 | 13.33° C | 87% | 1020 hPa | 0 mm | - | 27 W/m² | - |
| 1778081048 | 13.33° C | 87% | 1020.1 hPa | 0 mm | - | 22 W/m² | - |
| 1778080988 | 13.33° C | 87% | 1020.1 hPa | 0 mm | - | 22 W/m² | - |
| 1778080870 | 13.33° C | 87% | 1020.1 hPa | 0 mm | - | 25 W/m² | - |
| 1778080810 | 13.33° C | 87% | 1020.1 hPa | 0 mm | - | 24 W/m² | - |
| 1778080635 | 13.33° C | 87% | 1020.2 hPa | 0 mm | - | 20 W/m² | - |
| 1778080448 | 13.33° C | 87% | 1020.2 hPa | 0 mm | - | 20 W/m² | - |
| 1778080388 | 13.33° C | 87% | 1020.2 hPa | 0 mm | - | 19 W/m² | - |
| 1778080269 | 13.33° C | 87% | 1020.2 hPa | 0 mm | - | 20 W/m² | - |
| 1778080148 | 13.33° C | 87% | 1020.2 hPa | 0 mm | - | 19 W/m² | - |
| 1778080088 | 13.33° C | 87% | 1020.2 hPa | 0 mm | - | 17 W/m² | - |
| 1778079969 | 13.33° C | 87% | 1020.2 hPa | 0 mm | - | 16 W/m² | - |
* Rain latest hour (hover to see other rain measurements)
** Current wind speed in m/s (hover to see current wind gust speed)